createdAt,value
2023-05-13T00:02:01.179Z,15.10
2023-05-13T00:04:28.314Z,15.10
2023-05-13T00:06:55.636Z,15.20
2023-05-13T00:09:28.207Z,15.30
2023-05-13T00:11:57.728Z,15.20
2023-05-13T00:14:24.976Z,15.10
2023-05-13T00:16:52.195Z,15.10
2023-05-13T00:19:19.323Z,15.10
2023-05-13T00:21:46.336Z,15.10
2023-05-13T00:24:13.580Z,15.10
2023-05-13T00:26:40.679Z,15.10
2023-05-13T00:29:07.739Z,15.00
2023-05-13T00:31:35.056Z,14.80
2023-05-13T00:34:02.154Z,14.80
2023-05-13T00:36:29.340Z,14.70
2023-05-13T00:38:56.411Z,14.60
2023-05-13T00:41:23.474Z,14.60
2023-05-13T00:43:52.290Z,14.60
2023-05-13T00:46:19.348Z,14.50
2023-05-13T00:48:46.416Z,14.40
2023-05-13T00:51:13.525Z,14.30
2023-05-13T00:53:40.530Z,14.20
2023-05-13T00:56:07.601Z,14.20
2023-05-13T00:58:34.922Z,14.20
2023-05-13T01:01:05.031Z,14.30
2023-05-13T01:04:02.903Z,14.30
2023-05-13T01:06:51.699Z,14.40
2023-05-13T01:09:23.930Z,14.50
2023-05-13T01:11:50.949Z,14.50
2023-05-13T01:14:25.537Z,14.50
2023-05-13T01:16:53.950Z,14.50
2023-05-13T01:19:26.807Z,14.50
2023-05-13T01:21:54.696Z,14.50
2023-05-13T01:24:21.807Z,14.50
2023-05-13T01:26:49.561Z,14.50
2023-05-13T01:29:16.688Z,14.50
2023-05-13T01:31:43.744Z,14.50
2023-05-13T01:34:11.550Z,14.50
2023-05-13T01:36:39.495Z,14.50
2023-05-13T01:39:06.520Z,14.50
2023-05-13T01:41:33.563Z,14.50
2023-05-13T01:44:00.809Z,14.50
2023-05-13T01:46:27.850Z,14.40
2023-05-13T01:48:54.980Z,14.40
2023-05-13T01:51:21.961Z,14.50
2023-05-13T01:53:48.953Z,14.50
2023-05-13T01:56:16.009Z,14.50
2023-05-13T01:58:43.007Z,14.50
2023-05-13T02:01:10.158Z,14.50
2023-05-13T02:03:37.843Z,14.50
2023-05-13T02:06:05.196Z,14.40
2023-05-13T02:08:32.520Z,14.20
2023-05-13T02:10:59.730Z,14.10
2023-05-13T02:13:26.880Z,14.10
2023-05-13T02:15:54.616Z,14.10
2023-05-13T02:18:22.443Z,14.10
2023-05-13T02:20:49.593Z,14.00
2023-05-13T02:23:17.774Z,14.00
2023-05-13T02:25:45.005Z,14.00
2023-05-13T02:28:12.284Z,14.00
2023-05-13T02:30:39.215Z,13.90
2023-05-13T02:33:07.114Z,14.00
2023-05-13T02:35:34.310Z,14.00
2023-05-13T02:38:04.084Z,14.00
2023-05-13T02:40:31.095Z,14.00
2023-05-13T02:42:58.077Z,13.90
2023-05-13T02:45:27.470Z,14.00
2023-05-13T02:47:57.732Z,14.00
2023-05-13T02:50:27.177Z,14.00
2023-05-13T02:52:54.225Z,14.00
2023-05-13T02:55:21.466Z,14.00
2023-05-13T02:57:48.525Z,14.00
2023-05-13T03:00:16.210Z,14.00
2023-05-13T03:02:43.386Z,14.00
2023-05-13T03:05:10.568Z,14.10
2023-05-13T03:07:37.627Z,14.00
2023-05-13T03:10:05.206Z,14.00
2023-05-13T03:12:32.282Z,14.00
2023-05-13T03:15:02.574Z,14.00
2023-05-13T03:17:32.080Z,13.90
2023-05-13T03:19:59.116Z,13.90
2023-05-13T03:22:26.284Z,13.90
2023-05-13T03:24:53.383Z,13.80
2023-05-13T03:27:20.559Z,13.80
2023-05-13T03:29:47.596Z,13.80
2023-05-13T03:32:14.646Z,13.70
2023-05-13T03:34:41.625Z,13.70
2023-05-13T03:37:10.006Z,13.60
2023-05-13T03:39:37.245Z,13.60
2023-05-13T03:42:04.488Z,13.50
2023-05-13T03:44:31.530Z,13.60
2023-05-13T03:46:58.776Z,13.60
2023-05-13T03:49:26.015Z,13.60
2023-05-13T03:51:53.092Z,13.60
2023-05-13T03:54:20.111Z,13.60
2023-05-13T03:56:47.201Z,13.60
2023-05-13T03:59:14.289Z,13.60
2023-05-13T04:01:41.514Z,13.60
2023-05-13T04:04:08.572Z,13.60
2023-05-13T04:06:35.869Z,13.60
2023-05-13T04:09:04.747Z,13.60
2023-05-13T04:11:32.403Z,13.40
2023-05-13T04:13:59.513Z,13.20
2023-05-13T04:16:26.527Z,13.30
2023-05-13T04:18:53.546Z,13.30
2023-05-13T04:21:20.786Z,13.40
2023-05-13T04:23:48.109Z,13.50
2023-05-13T04:26:15.109Z,13.60
2023-05-13T04:28:42.100Z,13.70
2023-05-13T04:31:09.104Z,13.80
2023-05-13T04:33:36.070Z,13.90
2023-05-13T04:36:03.630Z,13.80
2023-05-13T04:38:31.672Z,14.00
2023-05-13T04:40:58.750Z,14.10
2023-05-13T04:43:25.904Z,14.20
2023-05-13T04:45:52.950Z,14.30
2023-05-13T04:48:20.066Z,14.40
2023-05-13T04:50:47.388Z,14.50
2023-05-13T04:53:15.041Z,14.60
2023-05-13T04:55:42.283Z,14.60
2023-05-13T04:58:09.360Z,14.50
2023-05-13T05:00:36.368Z,14.50
2023-05-13T05:03:03.537Z,14.50
2023-05-13T05:05:30.689Z,14.50
2023-05-13T05:07:57.732Z,14.60
2023-05-13T05:10:24.741Z,14.60
2023-05-13T05:12:52.018Z,14.60
2023-05-13T05:15:19.122Z,14.60
2023-05-13T05:17:46.244Z,14.60
2023-05-13T05:20:13.839Z,14.50
2023-05-13T05:22:42.270Z,14.50
2023-05-13T05:25:10.234Z,14.30
2023-05-13T05:27:37.232Z,14.00
2023-05-13T05:30:04.864Z,13.80
2023-05-13T05:32:32.058Z,13.90
2023-05-13T05:35:02.237Z,14.00
2023-05-13T05:37:30.456Z,14.10
2023-05-13T05:39:57.733Z,14.10
2023-05-13T05:42:24.990Z,14.10
2023-05-13T05:44:52.015Z,14.10
2023-05-13T05:47:19.610Z,14.20
2023-05-13T05:49:48.619Z,14.40
2023-05-13T05:52:15.791Z,14.50
2023-05-13T05:54:43.099Z,14.60
2023-05-13T05:57:10.240Z,14.70
2023-05-13T05:59:37.285Z,14.90
2023-05-13T06:02:04.700Z,15.10
2023-05-13T06:04:31.784Z,15.30
2023-05-13T06:06:59.073Z,15.40
2023-05-13T06:09:26.089Z,15.50
2023-05-13T06:11:53.285Z,15.80
2023-05-13T06:14:20.301Z,16.00
2023-05-13T06:16:47.307Z,16.00
2023-05-13T06:19:14.349Z,16.10
2023-05-13T06:21:43.344Z,16.20
2023-05-13T06:24:13.039Z,16.20
2023-05-13T06:26:40.128Z,16.30
2023-05-13T06:29:07.212Z,16.30
2023-05-13T06:31:34.494Z,16.40
2023-05-13T06:34:01.777Z,16.50
2023-05-13T06:36:29.282Z,16.60
2023-05-13T06:38:56.385Z,16.70
2023-05-13T06:41:23.518Z,16.60
2023-05-13T06:43:50.718Z,16.70
2023-05-13T06:46:17.825Z,16.80
2023-05-13T06:48:44.922Z,17.00
2023-05-13T06:51:12.201Z,17.40
2023-05-13T06:53:39.352Z,17.70
2023-05-13T06:56:08.319Z,18.10
2023-05-13T06:58:35.541Z,18.30
2023-05-13T07:01:05.799Z,18.50
2023-05-13T07:03:33.018Z,18.80
2023-05-13T07:06:00.121Z,19.00
2023-05-13T07:08:27.208Z,19.20
2023-05-13T07:10:54.282Z,19.30
2023-05-13T07:13:21.492Z,19.30
2023-05-13T07:15:49.250Z,19.50
2023-05-13T07:18:16.383Z,19.50
2023-05-13T07:20:46.850Z,19.50
2023-05-13T07:23:14.043Z,19.70
2023-05-13T07:25:41.120Z,19.90
2023-05-13T07:28:10.259Z,20.00
2023-05-13T07:30:39.591Z,20.10
2023-05-13T07:33:06.627Z,20.20
2023-05-13T07:35:33.689Z,20.50
2023-05-13T07:38:00.766Z,20.80
2023-05-13T07:40:27.900Z,21.10
2023-05-13T07:42:54.980Z,21.30
2023-05-13T07:45:22.474Z,21.50
2023-05-13T07:47:52.714Z,21.60
2023-05-13T07:50:19.935Z,21.60
2023-05-13T07:53:21.577Z,21.60
2023-05-13T07:55:48.672Z,21.50
2023-05-13T07:58:15.845Z,21.40
2023-05-13T08:00:43.096Z,21.30
2023-05-13T08:03:10.313Z,21.30
2023-05-13T08:05:37.448Z,21.30
2023-05-13T08:08:07.386Z,21.50
2023-05-13T08:10:34.476Z,21.70
2023-05-13T08:13:02.399Z,21.90
2023-05-13T08:15:29.522Z,22.20
2023-05-13T08:17:56.689Z,22.50
2023-05-13T08:20:29.995Z,22.70
2023-05-13T08:22:58.688Z,22.80
2023-05-13T08:25:25.871Z,22.80
2023-05-13T08:27:52.998Z,22.90
2023-05-13T08:30:20.142Z,22.90
2023-05-13T08:32:47.424Z,23.00
2023-05-13T08:35:14.675Z,23.10
2023-05-13T08:37:41.753Z,23.00
2023-05-13T08:40:10.361Z,22.80
2023-05-13T08:42:40.176Z,22.20
2023-05-13T08:45:08.775Z,21.70
2023-05-13T08:47:57.218Z,21.50
2023-05-13T08:50:24.479Z,21.50
2023-05-13T08:52:53.030Z,21.60
2023-05-13T08:55:20.444Z,21.70
2023-05-13T08:57:47.680Z,21.90
2023-05-13T09:00:15.245Z,22.00
2023-05-13T09:02:42.710Z,22.20
2023-05-13T09:05:11.505Z,22.20
2023-05-13T09:07:39.164Z,22.30
2023-05-13T09:10:07.265Z,22.60
2023-05-13T09:12:50.210Z,22.80
2023-05-13T09:15:19.307Z,23.00
2023-05-13T09:17:50.356Z,23.30
2023-05-13T09:20:37.972Z,23.50
2023-05-13T09:23:07.324Z,23.70
2023-05-13T09:25:34.862Z,23.90
2023-05-13T09:28:03.680Z,24.20
2023-05-13T09:30:36.807Z,24.40
2023-05-13T09:33:14.531Z,24.70
2023-05-13T09:35:43.658Z,24.60
2023-05-13T09:38:21.059Z,24.50
2023-05-13T09:40:59.201Z,24.70
2023-05-13T09:43:27.530Z,25.00
2023-05-13T09:45:55.395Z,25.10
2023-05-13T09:48:26.362Z,25.10
2023-05-13T09:50:53.839Z,25.00
2023-05-13T09:53:21.436Z,24.90
2023-05-13T09:55:52.868Z,24.90
2023-05-13T09:58:22.982Z,25.10
2023-05-13T10:00:51.298Z,25.40
2023-05-13T10:03:18.492Z,25.30
2023-05-13T10:05:46.009Z,24.90
2023-05-13T10:08:14.065Z,24.70
2023-05-13T10:10:42.013Z,24.70
2023-05-13T10:13:11.104Z,24.60
2023-05-13T10:15:50.804Z,24.50
2023-05-13T10:18:18.206Z,24.90
2023-05-13T10:20:45.793Z,25.00
2023-05-13T10:23:15.661Z,25.10
2023-05-13T10:25:43.175Z,25.10
2023-05-13T10:28:10.815Z,25.00
2023-05-13T10:30:40.761Z,24.80
2023-05-13T10:33:07.783Z,24.80
2023-05-13T10:35:42.668Z,24.70
2023-05-13T10:38:56.164Z,24.70
2023-05-13T10:41:23.441Z,24.50
2023-05-13T10:43:59.148Z,24.60
2023-05-13T10:46:26.318Z,24.90
2023-05-13T10:49:00.055Z,25.00
2023-05-13T10:51:27.393Z,25.10
2023-05-13T10:53:55.966Z,25.30
2023-05-13T10:56:27.076Z,25.70
2023-05-13T10:59:06.642Z,26.20
2023-05-13T11:01:47.407Z,26.60
2023-05-13T11:04:18.625Z,26.90
2023-05-13T11:06:47.162Z,27.20
2023-05-13T11:09:21.080Z,27.30
2023-05-13T11:11:49.245Z,27.50
2023-05-13T11:14:17.358Z,27.70
2023-05-13T11:17:04.495Z,27.90
2023-05-13T11:19:32.991Z,27.70
2023-05-13T11:22:19.939Z,27.70
2023-05-13T11:25:03.084Z,27.60
2023-05-13T11:27:30.142Z,27.60
2023-05-13T11:29:57.469Z,27.40
2023-05-13T11:32:59.680Z,27.20
2023-05-13T11:35:28.758Z,27.10
2023-05-13T11:37:59.119Z,26.90
2023-05-13T11:40:38.504Z,26.50
2023-05-13T11:43:08.307Z,26.50
2023-05-13T11:45:38.523Z,26.50
2023-05-13T11:48:26.924Z,26.40
2023-05-13T11:50:54.584Z,26.30
2023-05-13T11:53:22.991Z,26.20
2023-05-13T11:55:50.315Z,26.00
2023-05-13T11:58:17.511Z,25.70
2023-05-13T12:00:46.487Z,25.40
2023-05-13T12:03:16.320Z,24.40
2023-05-13T12:05:46.815Z,23.10
2023-05-13T12:08:14.100Z,22.50
2023-05-13T12:10:44.757Z,21.90
2023-05-13T12:13:12.793Z,21.50
2023-05-13T12:15:41.079Z,21.00
2023-05-13T12:18:08.336Z,20.40
2023-05-13T12:20:35.861Z,20.00
2023-05-13T12:23:04.604Z,19.90
2023-05-13T12:25:53.994Z,19.90
2023-05-13T12:28:24.308Z,19.90
2023-05-13T12:31:01.027Z,19.80
2023-05-13T12:34:01.485Z,19.60
2023-05-13T12:36:36.652Z,19.30
2023-05-13T12:39:07.286Z,19.00
2023-05-13T12:41:42.754Z,19.10
2023-05-13T12:44:11.178Z,19.10
2023-05-13T12:46:38.730Z,19.00
2023-05-13T12:49:06.222Z,19.10
2023-05-13T12:51:34.318Z,19.40
2023-05-13T12:54:04.074Z,19.80
2023-05-13T12:56:31.813Z,20.20
2023-05-13T12:58:59.292Z,20.60
2023-05-13T13:01:26.845Z,20.90
2023-05-13T13:03:54.201Z,21.20
2023-05-13T13:06:21.429Z,21.50
2023-05-13T13:08:48.796Z,22.00
2023-05-13T13:11:18.949Z,22.40
2023-05-13T13:13:46.711Z,22.70
2023-05-13T13:16:14.370Z,23.00
2023-05-13T13:18:42.507Z,23.20
2023-05-13T13:21:10.470Z,23.20
2023-05-13T13:23:37.483Z,23.30
2023-05-13T13:26:04.672Z,23.40
2023-05-13T13:28:32.116Z,23.30
2023-05-13T13:31:00.343Z,23.30
2023-05-13T13:33:27.818Z,23.30
2023-05-13T13:35:54.923Z,23.30
2023-05-13T13:38:22.365Z,23.20
2023-05-13T13:40:49.545Z,23.30
2023-05-13T13:43:16.645Z,23.40
2023-05-13T13:45:43.895Z,23.60
2023-05-13T13:48:11.315Z,23.70
2023-05-13T13:50:38.793Z,23.80
2023-05-13T13:53:06.000Z,23.90
2023-05-13T13:55:33.162Z,23.90
2023-05-13T13:58:00.462Z,23.90
2023-05-13T14:00:27.989Z,23.80
2023-05-13T14:02:55.341Z,23.70
2023-05-13T14:05:22.616Z,23.50
2023-05-13T14:07:54.273Z,23.30
2023-05-13T14:10:22.144Z,23.10
2023-05-13T14:12:49.612Z,23.00
2023-05-13T14:15:17.046Z,22.80
2023-05-13T14:17:46.469Z,22.70
2023-05-13T14:20:13.580Z,22.70
2023-05-13T14:22:40.761Z,22.60
2023-05-13T14:25:09.405Z,22.60
2023-05-13T14:27:36.813Z,22.60
2023-05-13T14:30:05.420Z,22.50
2023-05-13T14:32:33.310Z,22.40
2023-05-13T14:35:00.572Z,22.40
2023-05-13T14:37:27.918Z,22.40
2023-05-13T14:39:55.933Z,22.40
2023-05-13T14:42:29.118Z,22.30
2023-05-13T14:44:56.304Z,22.30
2023-05-13T14:47:23.580Z,22.20
2023-05-13T14:49:50.856Z,22.20
2023-05-13T14:52:18.051Z,22.10
2023-05-13T14:54:45.069Z,22.10
2023-05-13T14:57:12.397Z,22.10
2023-05-13T14:59:39.647Z,22.00
2023-05-13T15:02:06.693Z,22.00
2023-05-13T15:04:33.887Z,22.00
2023-05-13T15:07:02.260Z,22.00
2023-05-13T15:09:29.579Z,21.90
2023-05-13T15:11:56.713Z,21.90
2023-05-13T15:14:26.023Z,21.90
2023-05-13T15:16:53.441Z,21.90
2023-05-13T15:19:20.705Z,22.00
2023-05-13T15:21:47.861Z,22.00
2023-05-13T15:24:14.890Z,22.10
2023-05-13T15:26:42.230Z,22.10
2023-05-13T15:29:09.514Z,22.20
2023-05-13T15:31:36.606Z,22.20
2023-05-13T15:34:03.683Z,22.10
2023-05-13T15:36:31.243Z,22.10
2023-05-13T15:38:58.320Z,22.10
2023-05-13T15:41:25.396Z,22.00
2023-05-13T15:43:52.478Z,21.90
2023-05-13T15:46:19.775Z,21.90
2023-05-13T15:48:47.326Z,21.80
2023-05-13T15:51:14.323Z,21.70
2023-05-13T15:53:41.389Z,21.60
2023-05-13T15:56:31.703Z,21.50
2023-05-13T15:58:58.757Z,21.50
2023-05-13T16:01:25.963Z,21.40
2023-05-13T16:03:53.262Z,21.30
2023-05-13T16:06:20.464Z,21.20
2023-05-13T16:08:49.151Z,21.20
2023-05-13T16:11:27.284Z,21.20
2023-05-13T16:13:54.360Z,21.20
2023-05-13T16:16:21.853Z,21.20
2023-05-13T16:18:49.154Z,21.20
2023-05-13T16:21:16.603Z,21.20
2023-05-13T16:23:43.696Z,21.20
2023-05-13T16:26:10.707Z,21.30
2023-05-13T16:28:38.163Z,21.20
2023-05-13T16:31:05.252Z,21.30
2023-05-13T16:33:33.399Z,21.20
2023-05-13T16:36:00.682Z,21.20
2023-05-13T16:38:27.941Z,21.20
2023-05-13T16:40:56.225Z,21.20
2023-05-13T16:43:23.373Z,21.10
2023-05-13T16:45:50.424Z,21.10
2023-05-13T16:48:17.610Z,21.00
2023-05-13T16:50:44.750Z,21.00
2023-05-13T16:53:12.124Z,21.00
2023-05-13T16:55:39.510Z,20.90
2023-05-13T16:58:06.612Z,20.90
2023-05-13T17:00:33.630Z,20.90
2023-05-13T17:03:01.546Z,20.80
2023-05-13T17:05:30.153Z,20.80
2023-05-13T17:07:57.491Z,20.70
2023-05-13T17:10:24.661Z,20.70
2023-05-13T17:12:53.391Z,20.60
2023-05-13T17:15:20.469Z,20.50
2023-05-13T17:17:47.729Z,20.40
2023-05-13T17:20:14.828Z,20.30
2023-05-13T17:22:47.440Z,20.10
2023-05-13T17:25:15.215Z,20.00
2023-05-13T17:27:42.291Z,19.80
2023-05-13T17:30:10.012Z,19.70
2023-05-13T17:32:37.190Z,19.60
2023-05-13T17:35:05.138Z,19.60
2023-05-13T17:37:32.257Z,19.60
2023-05-13T17:40:01.634Z,19.60
2023-05-13T17:42:30.475Z,19.60
2023-05-13T17:44:57.667Z,19.50
2023-05-13T17:47:24.790Z,19.40
2023-05-13T17:49:51.885Z,19.40
2023-05-13T17:52:18.917Z,19.40
2023-05-13T17:54:46.221Z,19.40
2023-05-13T17:57:14.511Z,19.40
2023-05-13T17:59:41.647Z,19.40
2023-05-13T18:02:09.105Z,19.40
2023-05-13T18:04:36.252Z,19.40
2023-05-13T18:07:03.492Z,19.40
2023-05-13T18:09:30.644Z,19.40
2023-05-13T18:11:57.754Z,19.40
2023-05-13T18:14:24.927Z,19.40
2023-05-13T18:16:52.122Z,19.30
2023-05-13T18:19:19.212Z,19.40
2023-05-13T18:21:46.870Z,19.40
2023-05-13T18:24:13.960Z,19.30
2023-05-13T18:26:41.368Z,19.30
2023-05-13T18:29:08.392Z,19.20
2023-05-13T18:31:35.550Z,19.20
2023-05-13T18:34:06.946Z,19.20
2023-05-13T18:36:34.582Z,19.20
2023-05-13T18:39:05.511Z,19.10
2023-05-13T18:41:33.083Z,19.10
2023-05-13T18:44:00.326Z,18.90
2023-05-13T18:46:27.955Z,18.90
2023-05-13T18:48:55.426Z,18.80
2023-05-13T18:51:23.273Z,18.70
2023-05-13T18:53:50.547Z,18.70
2023-05-13T18:56:17.675Z,18.70
2023-05-13T18:58:46.942Z,18.70
2023-05-13T19:01:15.998Z,18.70
2023-05-13T19:03:43.901Z,18.60
2023-05-13T19:06:11.233Z,18.50
2023-05-13T19:08:38.732Z,18.60
2023-05-13T19:11:05.801Z,18.50
2023-05-13T19:13:39.770Z,18.40
2023-05-13T19:16:14.178Z,18.30
2023-05-13T19:18:41.456Z,18.30
2023-05-13T19:21:08.783Z,18.40
2023-05-13T19:23:37.186Z,18.40
2023-05-13T19:26:04.579Z,18.40
2023-05-13T19:28:32.477Z,18.40
2023-05-13T19:31:00.062Z,18.50
2023-05-13T19:33:27.537Z,18.50
2023-05-13T19:35:54.685Z,18.50
2023-05-13T19:38:41.750Z,18.50
2023-05-13T19:41:08.868Z,18.50
2023-05-13T19:43:36.003Z,18.50
2023-05-13T19:46:03.407Z,18.50
2023-05-13T19:48:30.851Z,18.50
2023-05-13T19:50:58.669Z,18.50
2023-05-13T19:53:26.384Z,18.50
2023-05-13T19:55:53.525Z,18.30
2023-05-13T19:58:20.915Z,18.40
2023-05-13T20:00:48.647Z,18.30
2023-05-13T20:03:15.982Z,18.30
2023-05-13T20:05:43.534Z,18.30
2023-05-13T20:08:11.165Z,18.30
2023-05-13T20:10:40.672Z,18.30
2023-05-13T20:13:08.095Z,18.20
2023-05-13T20:15:36.039Z,18.20
2023-05-13T20:18:03.209Z,18.20
2023-05-13T20:20:30.509Z,18.20
2023-05-13T20:22:58.184Z,18.20
2023-05-13T20:25:25.849Z,18.20
2023-05-13T20:27:52.942Z,18.10
2023-05-13T20:30:21.274Z,18.10
2023-05-13T20:32:48.778Z,18.10
2023-05-13T20:35:15.946Z,18.10
2023-05-13T20:37:43.171Z,17.90
2023-05-13T20:40:10.619Z,17.90
2023-05-13T20:42:37.695Z,17.80
2023-05-13T20:45:06.040Z,17.90
2023-05-13T20:47:33.203Z,17.90
2023-05-13T20:50:03.993Z,17.90
2023-05-13T20:52:34.135Z,18.00
2023-05-13T20:55:01.329Z,18.00
2023-05-13T20:57:28.600Z,17.90
2023-05-13T20:59:58.389Z,17.90
2023-05-13T21:02:26.224Z,17.90
2023-05-13T21:04:54.200Z,18.00
2023-05-13T21:07:21.306Z,17.90
2023-05-13T21:09:48.595Z,17.90
2023-05-13T21:12:15.867Z,17.90
2023-05-13T21:14:43.370Z,17.90
2023-05-13T21:17:10.858Z,17.90
2023-05-13T21:19:38.113Z,17.90
2023-05-13T21:22:06.086Z,17.90
2023-05-13T21:24:33.400Z,17.90
2023-05-13T21:27:00.582Z,17.90
2023-05-13T21:29:30.369Z,17.80
2023-05-13T21:31:59.270Z,17.80
2023-05-13T21:34:26.671Z,17.70
2023-05-13T21:36:54.075Z,17.70
2023-05-13T21:39:21.373Z,17.80
2023-05-13T21:42:00.289Z,17.80
2023-05-13T21:44:28.041Z,17.70
2023-05-13T21:46:55.381Z,17.80
2023-05-13T21:49:22.889Z,17.80
2023-05-13T21:51:50.212Z,17.80
2023-05-13T21:54:18.908Z,17.70
2023-05-13T21:56:46.931Z,17.70
2023-05-13T21:59:14.097Z,17.70
2023-05-13T22:01:41.326Z,17.70
2023-05-13T22:04:09.080Z,17.70
2023-05-13T22:06:36.447Z,17.70
2023-05-13T22:09:03.881Z,17.70
2023-05-13T22:11:30.942Z,17.60
2023-05-13T22:14:01.643Z,17.60
2023-05-13T22:16:29.106Z,17.60
2023-05-13T22:18:58.888Z,17.60
2023-05-13T22:21:26.551Z,17.50
2023-05-13T22:23:53.750Z,17.60
2023-05-13T22:26:22.045Z,17.50
2023-05-13T22:28:49.213Z,17.50
2023-05-13T22:31:17.024Z,17.50
2023-05-13T22:33:44.574Z,17.50
2023-05-13T22:36:14.771Z,17.50
2023-05-13T22:38:42.787Z,17.50
2023-05-13T22:41:09.936Z,17.50
2023-05-13T22:43:40.191Z,17.50
2023-05-13T22:46:07.410Z,17.50
2023-05-13T22:48:34.619Z,17.50
2023-05-13T22:51:01.885Z,17.50
2023-05-13T22:53:29.345Z,17.40
2023-05-13T22:55:56.554Z,17.40
2023-05-13T22:58:23.783Z,17.40
2023-05-13T23:00:51.026Z,17.30
2023-05-13T23:03:18.241Z,17.30
2023-05-13T23:05:48.296Z,17.30
2023-05-13T23:08:15.599Z,17.40
2023-05-13T23:10:42.704Z,17.40
2023-05-13T23:13:09.905Z,17.40
2023-05-13T23:15:37.296Z,17.30
2023-05-13T23:18:04.498Z,17.30
2023-05-13T23:20:31.862Z,17.30
2023-05-13T23:22:59.202Z,17.30
2023-05-13T23:25:26.542Z,17.30
2023-05-13T23:27:53.686Z,17.30
2023-05-13T23:30:21.592Z,17.30
2023-05-13T23:32:49.020Z,17.30
2023-05-13T23:35:16.099Z,17.30
2023-05-13T23:37:43.186Z,17.30
2023-05-13T23:40:10.612Z,17.30
2023-05-13T23:42:38.251Z,17.20
2023-05-13T23:45:05.755Z,17.20
2023-05-13T23:47:33.056Z,17.20
2023-05-13T23:50:00.447Z,17.20
2023-05-13T23:52:27.433Z,17.20
2023-05-13T23:54:54.563Z,17.10
2023-05-13T23:57:22.344Z,17.20
2023-05-13T23:59:49.418Z,17.10
